createdAt,value
2016-11-12T00:00:53.577Z,1018.09
2016-11-12T00:02:09.474Z,1018.08
2016-11-12T00:03:22.382Z,1018.09
2016-11-12T00:04:35.711Z,1018.12
2016-11-12T00:05:51.908Z,1018.14
2016-11-12T00:07:07.730Z,1018.1
2016-11-12T00:08:23.569Z,1018.13
2016-11-12T00:09:36.812Z,1018.11
2016-11-12T00:10:51.591Z,1018.14
2016-11-12T00:12:07.816Z,1018.19
2016-11-12T00:13:21.891Z,1018.17
2016-11-12T00:14:36.164Z,1018.18
2016-11-12T00:15:52.394Z,1018.17
2016-11-12T00:17:08.523Z,1018.17
2016-11-12T00:18:25.164Z,1018.14
2016-11-12T00:19:39.406Z,1018.13
2016-11-12T00:20:55.744Z,1018.13
2016-11-12T00:22:12.687Z,1018.13
2016-11-12T00:23:28.544Z,1018.1
2016-11-12T00:24:43.608Z,1018.09
2016-11-12T00:25:59.413Z,1018.09
2016-11-12T00:27:15.460Z,1018.09
2016-11-12T00:28:30.033Z,1018.07
2016-11-12T00:29:44.930Z,1018.05
2016-11-12T00:30:59.258Z,1018.05
2016-11-12T00:32:14.287Z,1018.04
2016-11-12T00:33:29.052Z,1018.08
2016-11-12T00:34:43.659Z,1018.06
2016-11-12T00:35:59.883Z,1018.06
2016-11-12T00:37:15.983Z,1018.05
2016-11-12T00:38:30.866Z,1018
2016-11-12T00:39:46.908Z,1017.95
2016-11-12T00:41:00.220Z,1017.99
2016-11-12T00:42:15.943Z,1018.01
2016-11-12T00:43:31.764Z,1018.01
2016-11-12T00:44:46.695Z,1017.99
2016-11-12T00:46:01.463Z,1018.04
2016-11-12T00:47:17.691Z,1018
2016-11-12T00:48:30.895Z,1018
2016-11-12T00:49:47.171Z,1017.99
2016-11-12T00:51:02.081Z,1017.98
2016-11-12T00:52:16.459Z,1018.01
2016-11-12T00:53:32.494Z,1018.02
2016-11-12T00:54:47.376Z,1018
2016-11-12T00:56:01.789Z,1018
2016-11-12T00:57:17.266Z,1017.99
2016-11-12T00:58:30.374Z,1018
2016-11-12T00:59:46.648Z,1017.96
2016-11-12T01:01:02.085Z,1018.02
2016-11-12T01:02:18.121Z,1018.05
2016-11-12T01:03:33.886Z,1018.07
2016-11-12T01:04:50.716Z,1018.07
2016-11-12T01:06:06.976Z,1018.05
2016-11-12T01:07:21.596Z,1018.04
2016-11-12T01:08:36.678Z,1018.04
2016-11-12T01:09:49.951Z,1018.01
2016-11-12T01:11:05.592Z,1018
2016-11-12T01:12:19.757Z,1018.07
2016-11-12T01:13:33.286Z,1018.06
2016-11-12T01:14:47.687Z,1018.06
2016-11-12T01:16:02.726Z,1018.1
2016-11-12T01:17:18.568Z,1018.08
2016-11-12T01:18:30.150Z,1018.07
2016-11-12T01:19:44.389Z,1018.05
2016-11-12T01:21:00.584Z,1018.01
2016-11-12T01:22:14.811Z,1018.07
2016-11-12T01:23:29.422Z,1018.03
2016-11-12T01:24:39.526Z,1018.02
2016-11-12T01:25:55.161Z,1018.02
2016-11-12T01:27:08.486Z,1018.01
2016-11-12T01:28:21.753Z,1017.98
2016-11-12T01:29:38.279Z,1018.03
2016-11-12T01:30:53.086Z,1017.98
2016-11-12T01:32:06.253Z,1018.03
2016-11-12T01:33:20.844Z,1017.99
2016-11-12T01:34:33.956Z,1017.98
2016-11-12T01:35:49.459Z,1018.01
2016-11-12T01:37:04.074Z,1018.02
2016-11-12T01:38:18.662Z,1018.01
2016-11-12T01:39:33.315Z,1018
2016-11-12T01:40:46.077Z,1018.01
2016-11-12T01:42:02.262Z,1017.98
2016-11-12T01:43:17.812Z,1017.99
2016-11-12T01:44:33.286Z,1017.94
2016-11-12T01:45:47.867Z,1017.98
2016-11-12T01:47:02.446Z,1018
2016-11-12T01:48:15.425Z,1018
2016-11-12T01:49:31.985Z,1018.05
2016-11-12T01:50:46.476Z,1017.98
2016-11-12T01:52:00.716Z,1017.97
2016-11-12T01:53:16.729Z,1017.98
2016-11-12T01:54:32.798Z,1017.95
2016-11-12T01:55:47.445Z,1017.94
2016-11-12T01:57:00.528Z,1017.88
2016-11-12T01:58:15.567Z,1017.85
2016-11-12T01:59:30.501Z,1017.84
2016-11-12T02:00:45.633Z,1017.81
2016-11-12T02:02:01.818Z,1017.86
2016-11-12T02:03:16.039Z,1017.85
2016-11-12T02:04:30.450Z,1017.85
2016-11-12T02:05:43.550Z,1017.87
2016-11-12T02:06:59.385Z,1017.87
2016-11-12T02:08:15.261Z,1017.85
2016-11-12T02:09:30.950Z,1017.85
2016-11-12T02:10:46.447Z,1017.82
2016-11-12T02:12:00.746Z,1017.8
2016-11-12T02:13:16.761Z,1017.8
2016-11-12T02:14:28.462Z,1017.76
2016-11-12T02:15:44.122Z,1017.75
2016-11-12T02:16:58.951Z,1017.76
2016-11-12T02:18:14.061Z,1017.76
2016-11-12T02:19:26.992Z,1017.8
2016-11-12T02:20:42.724Z,1017.84
2016-11-12T02:21:57.503Z,1017.83
2016-11-12T02:23:11.849Z,1017.78
2016-11-12T02:24:26.657Z,1017.78
2016-11-12T02:25:43.197Z,1017.77
2016-11-12T02:26:59.149Z,1017.74
2016-11-12T02:28:14.469Z,1017.73
2016-11-12T02:29:29.208Z,1017.72
2016-11-12T02:30:43.869Z,1017.73
2016-11-12T02:31:59.902Z,1017.77
2016-11-12T02:33:13.948Z,1017.8
2016-11-12T02:34:28.354Z,1017.82
2016-11-12T02:35:42.827Z,1017.82
2016-11-12T02:36:59.139Z,1017.85
2016-11-12T02:38:13.756Z,1017.82
2016-11-12T02:39:30.023Z,1017.85
2016-11-12T02:40:45.709Z,1017.86
2016-11-12T02:42:01.740Z,1017.84
2016-11-12T02:43:17.392Z,1017.84
2016-11-12T02:44:33.416Z,1017.8
2016-11-12T02:45:48.675Z,1017.81
2016-11-12T02:47:03.279Z,1017.76
2016-11-12T02:48:17.884Z,1017.75
2016-11-12T02:49:30.859Z,1017.78
2016-11-12T02:50:43.986Z,1017.83
2016-11-12T02:51:58.496Z,1017.81
2016-11-12T02:53:14.497Z,1017.81
2016-11-12T02:54:30.616Z,1017.8
2016-11-12T02:55:45.174Z,1017.78
2016-11-12T02:56:59.935Z,1017.8
2016-11-12T02:58:12.660Z,1017.86
2016-11-12T02:59:28.890Z,1017.84
2016-11-12T03:00:43.645Z,1017.83
2016-11-12T03:01:57.118Z,1017.83
2016-11-12T03:03:11.762Z,1017.85
2016-11-12T03:04:26.308Z,1017.89
2016-11-12T03:05:40.705Z,1017.84
2016-11-12T03:06:56.373Z,1017.87
2016-11-12T03:08:11.472Z,1017.87
2016-11-12T03:09:24.458Z,1017.86
2016-11-12T03:10:38.568Z,1017.91
2016-11-12T03:11:53.676Z,1017.87
2016-11-12T03:13:08.304Z,1017.87
2016-11-12T03:14:22.352Z,1017.83
2016-11-12T03:15:38.511Z,1017.88
2016-11-12T03:16:53.024Z,1017.84
2016-11-12T03:18:07.495Z,1017.81
2016-11-12T03:19:23.456Z,1017.79
2016-11-12T03:20:38.960Z,1017.75
2016-11-12T03:21:53.493Z,1017.77
2016-11-12T03:23:06.447Z,1017.78
2016-11-12T03:24:20.890Z,1017.76
2016-11-12T03:25:33.389Z,1017.77
2016-11-12T03:26:47.984Z,1017.78
2016-11-12T03:28:03.716Z,1017.8
2016-11-12T03:29:18.167Z,1017.83
2016-11-12T03:30:32.386Z,1017.85
2016-11-12T03:31:45.490Z,1017.85
2016-11-12T03:32:58.082Z,1017.79
2016-11-12T03:34:09.714Z,1017.78
2016-11-12T03:35:24.178Z,1017.83
2016-11-12T03:36:39.841Z,1017.86
2016-11-12T03:37:55.496Z,1017.84
2016-11-12T03:39:07.059Z,1017.8
2016-11-12T03:40:23.629Z,1017.85
2016-11-12T03:41:40.073Z,1017.84
2016-11-12T03:42:54.229Z,1017.86
2016-11-12T03:44:04.654Z,1017.82
2016-11-12T03:45:18.852Z,1017.82
2016-11-12T03:46:33.795Z,1017.81
2016-11-12T03:47:46.589Z,1017.79
2016-11-12T03:49:01.532Z,1017.76
2016-11-12T03:50:17.407Z,1017.73
2016-11-12T03:51:33.238Z,1017.74
2016-11-12T03:52:47.637Z,1017.74
2016-11-12T03:54:02.208Z,1017.71
2016-11-12T03:55:13.492Z,1017.77
2016-11-12T03:56:29.488Z,1017.76
2016-11-12T03:57:43.681Z,1017.71
2016-11-12T03:58:58.261Z,1017.67
2016-11-12T04:00:12.782Z,1017.67
2016-11-12T04:01:27.551Z,1017.7
2016-11-12T04:02:42.990Z,1017.69
2016-11-12T04:03:59.339Z,1017.73
2016-11-12T04:05:14.635Z,1017.74
2016-11-12T04:06:30.295Z,1017.73
2016-11-12T04:07:45.196Z,1017.71
2016-11-12T04:08:58.008Z,1017.74
2016-11-12T04:10:12.460Z,1017.71
2016-11-12T04:11:25.765Z,1017.77
2016-11-12T04:12:39.164Z,1017.75
2016-11-12T04:13:55.274Z,1017.76
2016-11-12T04:15:07.818Z,1017.78
2016-11-12T04:16:23.833Z,1017.74
2016-11-12T04:17:38.297Z,1017.76
2016-11-12T04:18:52.530Z,1017.75
2016-11-12T04:20:05.083Z,1017.76
2016-11-12T04:21:19.155Z,1017.74
2016-11-12T04:22:33.366Z,1017.75
2016-11-12T04:23:47.573Z,1017.78
2016-11-12T04:25:00.460Z,1017.73
2016-11-12T04:26:15.431Z,1017.76
2016-11-12T04:27:31.251Z,1017.73
2016-11-12T04:28:44.066Z,1017.78
2016-11-12T04:29:56.769Z,1017.77
2016-11-12T04:31:12.144Z,1017.82
2016-11-12T04:32:23.686Z,1017.76
2016-11-12T04:33:34.938Z,1017.82
2016-11-12T04:34:48.063Z,1017.82
2016-11-12T04:36:00.820Z,1017.82
2016-11-12T04:37:15.189Z,1017.81
2016-11-12T04:38:30.926Z,1017.8
2016-11-12T04:39:45.166Z,1017.85
2016-11-12T04:40:58.335Z,1017.78
2016-11-12T04:42:11.269Z,1017.78
2016-11-12T04:43:27.072Z,1017.78
2016-11-12T04:44:39.597Z,1017.73
2016-11-12T04:45:53.100Z,1017.74
2016-11-12T04:47:06.942Z,1017.69
2016-11-12T04:48:20.782Z,1017.68
2016-11-12T04:49:33.701Z,1017.64
2016-11-12T04:50:45.427Z,1017.68
2016-11-12T04:51:56.020Z,1017.63
2016-11-12T04:53:11.885Z,1017.66
2016-11-12T04:54:24.967Z,1017.61
2016-11-12T04:55:40.247Z,1017.66
2016-11-12T04:56:53.235Z,1017.63
2016-11-12T04:58:06.042Z,1017.67
2016-11-12T04:59:18.954Z,1017.63
2016-11-12T05:00:31.475Z,1017.64
2016-11-12T05:01:42.962Z,1017.61
2016-11-12T05:02:59.161Z,1017.68
2016-11-12T05:04:13.432Z,1017.64
2016-11-12T05:05:26.212Z,1017.65
2016-11-12T05:06:42.383Z,1017.61
2016-11-12T05:07:57.415Z,1017.64
2016-11-12T05:09:11.984Z,1017.67
2016-11-12T05:10:27.626Z,1017.61
2016-11-12T05:11:40.781Z,1017.67
2016-11-12T05:12:55.541Z,1017.67
2016-11-12T05:14:11.809Z,1017.65
2016-11-12T05:15:26.364Z,1017.62
2016-11-12T05:16:42.418Z,1017.6
2016-11-12T05:17:55.593Z,1017.61
2016-11-12T05:19:10.725Z,1017.59
2016-11-12T05:20:25.242Z,1017.62
2016-11-12T05:21:36.570Z,1017.61
2016-11-12T05:22:52.217Z,1017.6
2016-11-12T05:24:08.405Z,1017.58
2016-11-12T05:25:22.995Z,1017.56
2016-11-12T05:26:38.995Z,1017.58
2016-11-12T05:27:54.624Z,1017.59
2016-11-12T05:29:08.640Z,1017.56
2016-11-12T05:30:23.243Z,1017.57
2016-11-12T05:31:37.626Z,1017.62
2016-11-12T05:32:53.511Z,1017.62
2016-11-12T05:34:09.306Z,1017.63
2016-11-12T05:35:20.895Z,1017.7
2016-11-12T05:36:34.980Z,1017.69
2016-11-12T05:37:49.742Z,1017.62
2016-11-12T05:39:03.275Z,1017.64
2016-11-12T05:40:16.325Z,1017.68
2016-11-12T05:41:32.298Z,1017.71
2016-11-12T05:42:48.164Z,1017.68
2016-11-12T05:44:02.907Z,1017.68
2016-11-12T05:45:17.530Z,1017.68
2016-11-12T05:46:33.755Z,1017.68
2016-11-12T05:47:48.499Z,1017.67
2016-11-12T05:48:59.764Z,1017.72
2016-11-12T05:50:12.696Z,1017.69
2016-11-12T05:51:25.766Z,1017.65
2016-11-12T05:52:41.854Z,1017.69
2016-11-12T05:53:54.910Z,1017.63
2016-11-12T05:55:09.895Z,1017.55
2016-11-12T05:56:24.517Z,1017.59
2016-11-12T05:57:36.576Z,1017.59
2016-11-12T05:58:52.262Z,1017.6
2016-11-12T06:00:06.899Z,1017.6
2016-11-12T06:01:20.054Z,1017.67
2016-11-12T06:02:34.489Z,1017.63
2016-11-12T06:03:46.466Z,1017.62
2016-11-12T06:04:59.776Z,1017.61
2016-11-12T06:06:11.262Z,1017.62
2016-11-12T06:07:26.907Z,1017.63
2016-11-12T06:08:42.403Z,1017.67
2016-11-12T06:09:54.324Z,1017.63
2016-11-12T06:11:08.726Z,1017.64
2016-11-12T06:12:23.545Z,1017.64
2016-11-12T06:13:39.980Z,1017.63
2016-11-12T06:14:54.913Z,1017.63
2016-11-12T06:16:07.742Z,1017.63
2016-11-12T06:17:22.728Z,1017.61
2016-11-12T06:18:37.595Z,1017.63
2016-11-12T06:19:51.415Z,1017.62
2016-11-12T06:21:07.074Z,1017.63
2016-11-12T06:22:21.338Z,1017.66
2016-11-12T06:23:36.045Z,1017.6
2016-11-12T06:24:50.667Z,1017.65
2016-11-12T06:26:05.316Z,1017.67
2016-11-12T06:27:21.057Z,1017.65
2016-11-12T06:28:35.938Z,1017.63
2016-11-12T06:29:50.002Z,1017.64
2016-11-12T06:31:04.246Z,1017.61
2016-11-12T06:32:20.285Z,1017.63
2016-11-12T06:33:34.235Z,1017.63
2016-11-12T06:34:50.078Z,1017.6
2016-11-12T06:36:06.232Z,1017.6
2016-11-12T06:37:18.848Z,1017.64
2016-11-12T06:38:33.397Z,1017.64
2016-11-12T06:39:49.359Z,1017.69
2016-11-12T06:41:03.638Z,1017.72
2016-11-12T06:42:19.628Z,1017.73
2016-11-12T06:43:35.711Z,1017.73
2016-11-12T06:44:51.562Z,1017.77
2016-11-12T06:46:05.751Z,1017.79
2016-11-12T06:47:19.949Z,1017.79
2016-11-12T06:48:33.083Z,1017.87
2016-11-12T06:49:48.053Z,1017.85
2016-11-12T06:51:01.325Z,1017.9
2016-11-12T06:52:15.610Z,1017.9
2016-11-12T06:53:29.114Z,1017.89
2016-11-12T06:54:44.013Z,1017.88
2016-11-12T06:56:00.084Z,1017.89
2016-11-12T06:57:15.757Z,1017.93
2016-11-12T06:58:31.449Z,1017.95
2016-11-12T06:59:44.441Z,1017.98
2016-11-12T07:01:00.461Z,1018
2016-11-12T07:02:14.747Z,1018
2016-11-12T07:03:29.281Z,1017.99
2016-11-12T07:04:41.900Z,1018.05
2016-11-12T07:05:57.580Z,1018.05
2016-11-12T07:07:13.787Z,1018.04
2016-11-12T07:08:29.327Z,1018.02
2016-11-12T07:09:42.645Z,1017.98
2016-11-12T07:10:55.630Z,1017.96
2016-11-12T07:12:10.830Z,1017.99
2016-11-12T07:13:24.897Z,1017.96
2016-11-12T07:14:38.180Z,1017.97
2016-11-12T07:15:50.944Z,1017.96
2016-11-12T07:17:05.010Z,1017.96
2016-11-12T07:18:20.543Z,1017.97
2016-11-12T07:19:32.465Z,1017.96
2016-11-12T07:20:46.944Z,1017.97
2016-11-12T07:22:01.557Z,1017.95
2016-11-12T07:23:15.746Z,1017.95
2016-11-12T07:24:31.465Z,1017.98
2016-11-12T07:25:46.030Z,1017.98
2016-11-12T07:27:00.233Z,1018.04
2016-11-12T07:28:12.142Z,1018.06
2016-11-12T07:29:28.040Z,1018.01
2016-11-12T07:30:42.407Z,1018.02
2016-11-12T07:31:58.045Z,1017.97
2016-11-12T07:33:13.507Z,1017.97
2016-11-12T07:34:29.684Z,1017.93
2016-11-12T07:35:43.687Z,1017.88
2016-11-12T07:36:56.302Z,1017.9
2016-11-12T07:38:09.278Z,1017.92
2016-11-12T07:39:23.335Z,1017.93
2016-11-12T07:40:39.551Z,1017.9
2016-11-12T07:41:54.756Z,1017.89
2016-11-12T07:43:06.250Z,1017.92
2016-11-12T07:44:21.935Z,1017.95
2016-11-12T07:45:36.664Z,1017.92
2016-11-12T07:46:50.013Z,1017.93
2016-11-12T07:48:04.604Z,1017.97
2016-11-12T07:49:18.856Z,1017.96
2016-11-12T07:50:35.395Z,1018.04
2016-11-12T07:51:48.762Z,1018.08
2016-11-12T07:53:01.321Z,1018.05
2016-11-12T07:54:15.944Z,1018.06
2016-11-12T07:55:30.238Z,1018.12
2016-11-12T07:56:44.838Z,1018.09
2016-11-12T07:57:59.529Z,1018.09
2016-11-12T07:59:12.673Z,1018.03
2016-11-12T08:00:27.495Z,1018.02
2016-11-12T08:01:42.816Z,1018.01
2016-11-12T08:02:56.176Z,1018.02
2016-11-12T08:04:10.596Z,1018.04
2016-11-12T08:05:24.803Z,1018.03
2016-11-12T08:06:38.991Z,1017.98
2016-11-12T08:07:55.380Z,1017.91
2016-11-12T08:09:11.377Z,1017.98
2016-11-12T08:10:26.176Z,1017.96
2016-11-12T08:11:40.821Z,1017.91
2016-11-12T08:12:55.506Z,1017.88
2016-11-12T08:14:12.130Z,1017.9
2016-11-12T08:15:28.568Z,1017.97
2016-11-12T08:16:44.218Z,1017.99
2016-11-12T08:17:58.961Z,1017.98
2016-11-12T08:19:13.721Z,1017.97
2016-11-12T08:20:27.280Z,1018.01
2016-11-12T08:21:41.985Z,1017.98
2016-11-12T08:22:58.393Z,1017.99
2016-11-12T08:24:14.411Z,1017.96
2016-11-12T08:25:31.005Z,1017.96
2016-11-12T08:26:45.768Z,1017.94
2016-11-12T08:28:00.214Z,1017.95
2016-11-12T08:29:16.078Z,1017.97
2016-11-12T08:30:28.701Z,1017.93
2016-11-12T08:31:43.081Z,1017.95
2016-11-12T08:32:59.146Z,1017.94
2016-11-12T08:34:15.145Z,1017.99
2016-11-12T08:35:30.615Z,1018.02
2016-11-12T08:36:46.572Z,1018.02
2016-11-12T08:38:00.798Z,1018.05
2016-11-12T08:39:16.287Z,1018.04
2016-11-12T08:40:31.290Z,1018.03
2016-11-12T08:41:44.582Z,1018.03
2016-11-12T08:42:57.950Z,1018.01
2016-11-12T08:44:14.079Z,1017.99
2016-11-12T08:45:29.894Z,1018.01
2016-11-12T08:46:45.937Z,1018.04
2016-11-12T08:48:00.358Z,1018.07
2016-11-12T08:49:15.660Z,1018.04
2016-11-12T08:50:31.915Z,1018.02
2016-11-12T08:51:43.730Z,1018.01
2016-11-12T08:52:58.199Z,1017.99
2016-11-12T08:54:14.057Z,1018.01
2016-11-12T08:55:30.106Z,1018.08
2016-11-12T08:56:46.645Z,1018.11
2016-11-12T08:58:02.500Z,1018.09
2016-11-12T08:59:17.521Z,1018.05
2016-11-12T09:00:33.198Z,1018.06
2016-11-12T09:01:49.236Z,1018
2016-11-12T09:03:03.827Z,1017.96
2016-11-12T09:04:18.672Z,1018.04
2016-11-12T09:05:34.955Z,1018.05
2016-11-12T09:06:49.301Z,1017.93
2016-11-12T09:08:05.263Z,1018
2016-11-12T09:09:20.588Z,1018.01
2016-11-12T09:10:35.157Z,1018.03
2016-11-12T09:11:51.970Z,1017.97
2016-11-12T09:13:04.683Z,1018.03
2016-11-12T09:14:18.965Z,1018
2016-11-12T09:15:31.723Z,1017.96
2016-11-12T09:16:43.275Z,1017.96
2016-11-12T09:17:59.375Z,1017.91
2016-11-12T09:19:11.992Z,1017.9
2016-11-12T09:20:27.916Z,1018
2016-11-12T09:21:43.800Z,1017.94
2016-11-12T09:22:59.300Z,1017.88
2016-11-12T09:24:15.353Z,1017.84
2016-11-12T09:25:29.745Z,1017.83
2016-11-12T09:26:41.326Z,1017.88
2016-11-12T09:27:56.123Z,1017.8
2016-11-12T09:29:12.513Z,1017.8
2016-11-12T09:30:28.384Z,1017.71
2016-11-12T09:31:44.790Z,1017.74
2016-11-12T09:32:56.075Z,1017.64
2016-11-12T09:34:12.698Z,1017.63
2016-11-12T09:35:27.820Z,1017.63
2016-11-12T09:36:43.504Z,1017.61
2016-11-12T09:37:57.945Z,1017.73
2016-11-12T09:39:11.058Z,1017.83
2016-11-12T09:40:25.722Z,1017.9
2016-11-12T09:41:41.824Z,1017.72
2016-11-12T09:42:56.781Z,1017.83
2016-11-12T09:44:11.560Z,1017.79
2016-11-12T09:45:24.492Z,1017.83
2016-11-12T09:46:38.536Z,1017.76
2016-11-12T09:47:54.027Z,1017.84
2016-11-12T09:49:08.357Z,1017.79
2016-11-12T09:50:22.940Z,1017.68
2016-11-12T09:51:39.375Z,1017.73
2016-11-12T09:52:52.259Z,1017.65
2016-11-12T09:54:07.041Z,1017.64
2016-11-12T09:55:20.131Z,1017.65
2016-11-12T09:56:35.956Z,1017.75
2016-11-12T09:57:52.102Z,1017.72
2016-11-12T09:59:07.263Z,1017.72
2016-11-12T10:00:20.435Z,1017.7
2016-11-12T10:01:34.678Z,1017.69
2016-11-12T10:02:50.927Z,1017.7
2016-11-12T10:04:03.844Z,1017.6
2016-11-12T10:05:19.021Z,1017.61
2016-11-12T10:06:33.992Z,1017.61
2016-11-12T10:07:49.913Z,1017.65
2016-11-12T10:09:05.590Z,1017.66
2016-11-12T10:10:21.503Z,1017.59
2016-11-12T10:11:35.042Z,1017.57
2016-11-12T10:12:51.327Z,1017.57
2016-11-12T10:14:07.979Z,1017.6
2016-11-12T10:15:22.897Z,1017.58
2016-11-12T10:16:37.162Z,1017.62
2016-11-12T10:17:48.796Z,1017.56
2016-11-12T10:19:03.032Z,1017.52
2016-11-12T10:20:19.590Z,1017.55
2016-11-12T10:21:34.179Z,1017.52
2016-11-12T10:22:50.219Z,1017.45
2016-11-12T10:24:04.793Z,1017.47
2016-11-12T10:25:19.941Z,1017.46
2016-11-12T10:26:34.341Z,1017.45
2016-11-12T10:27:48.557Z,1017.37
2016-11-12T10:29:03.187Z,1017.31
2016-11-12T10:30:18.845Z,1017.33
2016-11-12T10:31:33.796Z,1017.35
2016-11-12T10:32:49.812Z,1017.42
2016-11-12T10:34:04.050Z,1017.36
2016-11-12T10:35:18.508Z,1017.47
2016-11-12T10:36:32.983Z,1017.31
2016-11-12T10:37:47.960Z,1017.31
2016-11-12T10:39:03.085Z,1017.36
2016-11-12T10:40:17.470Z,1017.36
2016-11-12T10:41:30.409Z,1017.36
2016-11-12T10:42:46.336Z,1017.35
2016-11-12T10:44:02.003Z,1017.3
2016-11-12T10:45:16.932Z,1017.35
2016-11-12T10:46:31.640Z,1017.36
2016-11-12T10:47:47.190Z,1017.41
2016-11-12T10:49:00.159Z,1017.42
2016-11-12T10:50:16.351Z,1017.4
2016-11-12T10:51:32.551Z,1017.45
2016-11-12T10:52:46.987Z,1017.44
2016-11-12T10:54:03.023Z,1017.48
2016-11-12T10:55:16.874Z,1017.43
2016-11-12T10:56:33.534Z,1017.49
2016-11-12T10:57:48.206Z,1017.39
2016-11-12T10:59:04.211Z,1017.36
2016-11-12T11:00:15.881Z,1017.42
2016-11-12T11:01:30.679Z,1017.38
2016-11-12T11:02:44.168Z,1017.37
2016-11-12T11:04:00.346Z,1017.35
2016-11-12T11:05:14.607Z,1017.34
2016-11-12T11:06:30.094Z,1017.24
2016-11-12T11:07:42.914Z,1017.28
2016-11-12T11:08:58.792Z,1017.22
2016-11-12T11:10:14.761Z,1017.22
2016-11-12T11:11:31.225Z,1017.23
2016-11-12T11:12:46.074Z,1017.22
2016-11-12T11:13:58.159Z,1017.18
2016-11-12T11:15:14.021Z,1017.15
2016-11-12T11:16:25.944Z,1017.17
2016-11-12T11:17:41.629Z,1017.13
2016-11-12T11:18:56.393Z,1017.1
2016-11-12T11:20:12.405Z,1017.12
2016-11-12T11:21:28.218Z,1017.11
2016-11-12T11:22:41.154Z,1017.05
2016-11-12T11:23:57.602Z,1017.03
2016-11-12T11:25:12.473Z,1017.05
2016-11-12T11:26:23.953Z,1017.05
2016-11-12T11:27:38.218Z,1017.07
2016-11-12T11:28:51.610Z,1017.17
2016-11-12T11:30:07.330Z,1017.09
2016-11-12T11:31:23.393Z,1017.02
2016-11-12T11:32:39.507Z,1017.06
2016-11-12T11:33:54.571Z,1017.05
2016-11-12T11:35:08.751Z,1017.05
2016-11-12T11:36:23.621Z,1017.07
2016-11-12T11:37:40.360Z,1017.14
2016-11-12T11:38:56.753Z,1017.12
2016-11-12T11:40:12.415Z,1017.04
2016-11-12T11:41:26.809Z,1017.11
2016-11-12T11:42:39.903Z,1017.04
2016-11-12T11:43:53.225Z,1017.02
2016-11-12T11:45:06.766Z,1016.96
2016-11-12T11:46:22.992Z,1016.98
2016-11-12T11:47:38.984Z,1017.01
2016-11-12T11:48:53.373Z,1016.99
2016-11-12T11:50:09.074Z,1017
2016-11-12T11:51:25.399Z,1017
2016-11-12T11:52:39.611Z,1017
2016-11-12T11:53:54.183Z,1016.96
2016-11-12T11:55:08.812Z,1016.93
2016-11-12T11:56:22.164Z,1016.97
2016-11-12T11:57:35.359Z,1016.93
2016-11-12T11:58:50.668Z,1016.92
2016-11-12T12:00:06.343Z,1016.88
2016-11-12T12:01:20.945Z,1016.86
2016-11-12T12:02:37.292Z,1016.89
2016-11-12T12:03:49.192Z,1016.91
2016-11-12T12:05:05.369Z,1016.96
2016-11-12T12:06:21.666Z,1016.92
2016-11-12T12:07:36.292Z,1017
2016-11-12T12:08:52.684Z,1017
2016-11-12T12:10:08.356Z,1017
2016-11-12T12:11:24.789Z,1017.07
2016-11-12T12:12:37.963Z,1016.99
2016-11-12T12:13:50.971Z,1017
2016-11-12T12:15:06.049Z,1016.95
2016-11-12T12:16:21.288Z,1016.92
2016-11-12T12:17:37.142Z,1016.89
2016-11-12T12:18:51.946Z,1016.88
2016-11-12T12:20:06.177Z,1016.87
2016-11-12T12:21:20.639Z,1016.92
2016-11-12T12:22:37.340Z,1016.92
2016-11-12T12:23:53.344Z,1016.94
2016-11-12T12:25:09.575Z,1016.92
2016-11-12T12:26:22.357Z,1016.91
2016-11-12T12:27:36.889Z,1016.87
2016-11-12T12:28:53.718Z,1016.84
2016-11-12T12:30:08.328Z,1016.87
2016-11-12T12:31:24.393Z,1016.84
2016-11-12T12:32:35.915Z,1016.91
2016-11-12T12:33:50.208Z,1016.89
2016-11-12T12:35:03.768Z,1016.9
2016-11-12T12:36:18.327Z,1016.87
2016-11-12T12:37:34.932Z,1016.86
2016-11-12T12:38:49.175Z,1016.81
2016-11-12T12:40:04.735Z,1016.77
2016-11-12T12:41:20.607Z,1016.69
2016-11-12T12:42:35.212Z,1016.66
2016-11-12T12:43:51.244Z,1016.69
2016-11-12T12:45:06.030Z,1016.68
2016-11-12T12:46:22.190Z,1016.62
2016-11-12T12:47:36.823Z,1016.57
2016-11-12T12:48:51.629Z,1016.56
2016-11-12T12:50:08.043Z,1016.58
2016-11-12T12:51:23.956Z,1016.57
2016-11-12T12:52:38.441Z,1016.58
2016-11-12T12:53:52.858Z,1016.6
2016-11-12T12:55:04.915Z,1016.59
2016-11-12T12:56:20.918Z,1016.6
2016-11-12T12:57:35.321Z,1016.61
2016-11-12T12:58:46.701Z,1016.58
2016-11-12T13:00:02.713Z,1016.59
2016-11-12T13:01:18.408Z,1016.62
2016-11-12T13:02:35.170Z,1016.6
2016-11-12T13:03:49.765Z,1016.5
2016-11-12T13:05:05.125Z,1016.51
2016-11-12T13:06:19.539Z,1016.51
2016-11-12T13:07:35.960Z,1016.47
2016-11-12T13:08:50.898Z,1016.52
2016-11-12T13:10:04.215Z,1016.54
2016-11-12T13:11:18.942Z,1016.55
2016-11-12T13:12:33.571Z,1016.46
2016-11-12T13:13:49.621Z,1016.45
2016-11-12T13:15:05.216Z,1016.45
2016-11-12T13:16:21.065Z,1016.44
2016-11-12T13:17:36.940Z,1016.44
2016-11-12T13:18:51.525Z,1016.42
2016-11-12T13:20:06.277Z,1016.45
2016-11-12T13:21:20.677Z,1016.42
2016-11-12T13:22:35.256Z,1016.38
2016-11-12T13:23:51.281Z,1016.44
2016-11-12T13:25:06.414Z,1016.45
2016-11-12T13:26:19.479Z,1016.43
2016-11-12T13:27:32.017Z,1016.37
2016-11-12T13:28:47.468Z,1016.37
2016-11-12T13:30:01.883Z,1016.46
2016-11-12T13:31:16.424Z,1016.43
2016-11-12T13:32:32.074Z,1016.45
2016-11-12T13:33:46.272Z,1016.42
2016-11-12T13:35:00.597Z,1016.54
2016-11-12T13:36:15.718Z,1016.42
2016-11-12T13:37:31.731Z,1016.45
2016-11-12T13:38:47.777Z,1016.44
2016-11-12T13:40:04.306Z,1016.43
2016-11-12T13:41:17.736Z,1016.41
2016-11-12T13:42:33.583Z,1016.42
2016-11-12T13:43:49.382Z,1016.49
2016-11-12T13:45:03.781Z,1016.45
2016-11-12T13:46:19.808Z,1016.38
2016-11-12T13:47:33.857Z,1016.43
2016-11-12T13:48:48.126Z,1016.43
2016-11-12T13:50:02.917Z,1016.47
2016-11-12T13:51:19.168Z,1016.51
2016-11-12T13:52:35.408Z,1016.45
2016-11-12T13:53:48.314Z,1016.4
2016-11-12T13:55:01.263Z,1016.42
2016-11-12T13:56:17.820Z,1016.44
2016-11-12T13:57:34.239Z,1016.46
2016-11-12T13:58:49.538Z,1016.46
2016-11-12T14:00:05.043Z,1016.45
2016-11-12T14:01:19.298Z,1016.41
2016-11-12T14:02:32.174Z,1016.44
2016-11-12T14:03:46.824Z,1016.44
2016-11-12T14:05:03.216Z,1016.44
2016-11-12T14:06:18.961Z,1016.42
2016-11-12T14:07:34.815Z,1016.41
2016-11-12T14:08:49.725Z,1016.39
2016-11-12T14:10:04.483Z,1016.35
2016-11-12T14:11:18.692Z,1016.36
2016-11-12T14:12:33.297Z,1016.34
2016-11-12T14:13:50.208Z,1016.26
2016-11-12T14:15:04.758Z,1016.21
2016-11-12T14:16:17.568Z,1016.21
2016-11-12T14:17:32.848Z,1016.19
2016-11-12T14:18:47.683Z,1016.21
2016-11-12T14:20:00.409Z,1016.18
2016-11-12T14:21:14.842Z,1016.17
2016-11-12T14:22:30.151Z,1016.23
2016-11-12T14:23:45.839Z,1016.23
2016-11-12T14:25:00.783Z,1016.16
2016-11-12T14:26:17.358Z,1016.16
2016-11-12T14:27:33.215Z,1016.14
2016-11-12T14:28:48.324Z,1016.15
2016-11-12T14:30:03.277Z,1016.13
2016-11-12T14:31:19.316Z,1016.12
2016-11-12T14:32:35.401Z,1016.09
2016-11-12T14:33:50.152Z,1016.07
2016-11-12T14:35:06.347Z,1016.02
2016-11-12T14:36:20.540Z,1016.06
2016-11-12T14:37:36.583Z,1016
2016-11-12T14:38:52.822Z,1016.03
2016-11-12T14:40:05.974Z,1016.01
2016-11-12T14:41:21.966Z,1016.05
2016-11-12T14:42:36.440Z,1016.08
2016-11-12T14:43:50.535Z,1016.06
2016-11-12T14:45:06.259Z,1016.07
2016-11-12T14:46:20.606Z,1016.05
2016-11-12T14:47:36.654Z,1016.08
2016-11-12T14:48:50.008Z,1016.05
2016-11-12T14:50:04.904Z,1016.1
2016-11-12T14:51:19.373Z,1016.12
2016-11-12T14:52:33.659Z,1016.1
2016-11-12T14:53:48.435Z,1016.13
2016-11-12T14:55:04.336Z,1016.14
2016-11-12T14:56:20.043Z,1016.12
2016-11-12T14:57:34.574Z,1016.1
2016-11-12T14:58:50.972Z,1016.14
2016-11-12T15:00:05.830Z,1016.12
2016-11-12T15:01:21.141Z,1016.15
2016-11-12T15:02:34.134Z,1016.09
2016-11-12T15:03:46.859Z,1016.1
2016-11-12T15:05:02.553Z,1016.09
2016-11-12T15:06:16.597Z,1016.13
2016-11-12T15:07:32.086Z,1016.1
2016-11-12T15:08:45.939Z,1016.09